Terminal Aerodrome Forecast
Issued by NWS

Home | Current Version | Previous Version | Text Only | Print | Product List | Glossary On
Versions: 1 2 3 4 5 6 7 8 9 10 11 12 13 14 15 16 17 18
282
FTUS43 KMQT 090529
TAFCMX
TAF
KCMX 090529Z 0906/1006 34010G20KT 1 1/2SM -SHSN BLSN OVC015
      TEMPO 0907/0911 3/4SM -SN OVC030
     FM092100 35015G25KT 3SM -SHSN BLSN OVC015=

USA.gov is the U.S. government's official web portal to all federal, state and local government web resources and services.